Time;durP1;ratioP1;P1;durP2;ratioP2;P2;SDS_P1;SDS_P2;PMS_P1;PMS_P2;Temp;Humidity;BMP_temperature;BMP_pressure;BME280_temperature;BME280_humidity;BME280_pressure;Samples;Min_cycle;Max_cycle;Signal;HPM_P1;HPM_P2
2023/08/26 00:01:52;;;;;;;23.00;14.32;;;;;;;11.30;80.30;99174.81;4859255;29;20104;-60
2023/08/26 00:04:20;;;;;;;24.27;13.65;;;;;;;11.23;80.62;99187.44;4859165;29;20045;-60
2023/08/26 00:06:46;;;;;;;27.20;15.82;;;;;;;11.16;80.57;99184.19;4858939;29;20078;-59
2023/08/26 00:09:11;;;;;;;27.17;16.98;;;;;;;11.12;80.68;99183.88;4859338;29;20049;-59
2023/08/26 00:11:37;;;;;;;32.25;18.42;;;;;;;11.09;81.01;99181.72;4859028;29;20460;-60
2023/08/26 00:14:03;;;;;;;42.92;24.45;;;;;;;11.09;81.07;99181.72;4857403;29;20122;-58
2023/08/26 00:16:29;;;;;;;70.07;40.83;;;;;;;11.06;80.96;99179.56;4858693;29;20042;-58
2023/08/26 00:18:59;;;;;;;72.55;43.33;;;;;;;11.05;81.14;99185.88;4858895;29;20053;-60
2023/08/26 00:21:28;;;;;;;42.10;24.90;;;;;;;11.04;80.29;99180.84;4858987;29;20530;-58
2023/08/26 00:23:54;;;;;;;47.23;28.33;;;;;;;11.00;80.84;99175.22;4858890;29;20091;-59
2023/08/26 00:26:21;;;;;;;43.53;28.10;;;;;;;11.00;80.91;99177.06;4857762;29;20282;-59
2023/08/26 00:28:47;;;;;;;34.45;21.52;;;;;;;10.96;81.86;99176.75;4842242;29;20078;-58
2023/08/26 00:31:13;;;;;;;27.50;17.13;;;;;;;10.90;82.14;99175.88;4855721;29;20420;-59
2023/08/26 00:33:39;;;;;;;27.80;15.27;;;;;;;10.87;82.46;99181.66;4865448;29;20056;-58
2023/08/26 00:36:04;;;;;;;30.65;15.25;;;;;;;10.84;82.97;99179.50;4842092;29;20132;-59
2023/08/26 00:38:30;;;;;;;25.88;15.02;;;;;;;10.80;82.69;99183.69;4857669;29;20059;-57
2023/08/26 00:40:56;;;;;;;28.15;15.70;;;;;;;10.75;82.61;99173.00;4862619;29;20042;-59
2023/08/26 00:43:22;;;;;;;61.00;29.65;;;;;;;10.76;82.29;99179.91;4861254;29;20053;-59
2023/08/26 00:45:49;;;;;;;90.53;44.80;;;;;;;10.75;82.49;99178.31;4861112;29;20097;-58
2023/08/26 00:48:16;;;;;;;99.22;51.38;;;;;;;10.76;82.23;99177.25;4830445;29;20501;-58
2023/08/26 00:50:44;;;;;;;92.70;48.28;;;;;;;10.77;82.90;99180.75;4860896;29;20093;-58
2023/08/26 00:53:11;;;;;;;91.25;47.03;;;;;;;10.77;82.29;99181.53;4845557;29;20049;-59
2023/08/26 00:55:38;;;;;;;115.22;56.55;;;;;;;10.79;82.33;99182.06;4862002;29;20532;-58
2023/08/26 00:58:05;;;;;;;83.60;45.47;;;;;;;10.78;82.84;99174.38;4861007;29;20564;-57
2023/08/26 01:00:32;;;;;;;87.65;47.20;;;;;;;10.78;82.85;99177.81;4862109;29;20412;-59
2023/08/26 01:02:58;;;;;;;75.75;41.00;;;;;;;10.76;83.40;99171.97;4862235;29;20456;-60
2023/08/26 01:05:24;;;;;;;59.50;31.25;;;;;;;10.76;83.53;99177.25;4859969;29;20041;-57
2023/08/26 01:07:50;;;;;;;73.10;36.42;;;;;;;10.74;83.56;99175.91;4841974;29;20133;-59
2023/08/26 01:10:16;;;;;;;32.78;18.55;;;;;;;10.67;83.02;99173.41;4843792;29;20089;-60
2023/08/26 01:13:02;;;;;;;35.70;21.27;;;;;;;10.60;83.69;99180.75;4843530;29;20132;-59
2023/08/26 01:15:29;;;;;;;41.42;23.63;;;;;;;10.55;83.30;99176.16;4842061;29;20148;-58
2023/08/26 01:17:54;;;;;;;44.58;24.30;;;;;;;10.53;84.40;99180.91;4857512;29;20156;-58
2023/08/26 01:20:20;;;;;;;72.20;38.30;;;;;;;10.51;84.22;99182.19;4842328;29;20543;-59
2023/08/26 01:22:47;;;;;;;105.22;55.35;;;;;;;10.48;84.95;99167.59;4826627;29;20045;-59
2023/08/26 01:25:13;;;;;;;104.97;54.03;;;;;;;10.51;85.08;99168.94;4811588;29;20050;-59
2023/08/26 01:27:39;;;;;;;120.10;63.88;;;;;;;10.53;85.07;99180.09;4843279;29;20061;-59
2023/08/26 01:30:06;;;;;;;70.22;40.25;;;;;;;10.51;84.64;99180.34;4826553;29;20045;-59
2023/08/26 01:32:54;;;;;;;45.17;26.40;;;;;;;10.48;84.46;99177.38;4841292;29;20062;-58
2023/08/26 01:35:24;;;;;;;39.10;22.75;;;;;;;10.44;84.10;99177.03;4860117;29;20424;-59
2023/08/26 01:37:50;;;;;;;;;;;;;;;10.41;84.65;99169.56;4862112;29;20102;-58
2023/08/26 01:40:18;;;;;;;48.97;28.13;;;;;;;10.38;85.00;99183.31;4860253;29;19943;-58
2023/08/26 01:42:44;;;;;;;54.90;26.83;;;;;;;10.34;84.92;99177.69;4860311;29;20516;-60
2023/08/26 01:45:12;;;;;;;53.72;24.75;;;;;;;10.35;85.62;99176.66;4861516;29;20057;-58
2023/08/26 01:47:38;;;;;;;47.65;26.00;;;;;;;10.35;85.29;99168.72;4861499;29;20077;-58
2023/08/26 01:50:04;;;;;;;57.15;30.15;;;;;;;10.39;85.52;99179.63;4859429;29;20097;-57
2023/08/26 01:52:30;;;;;;;44.83;22.73;;;;;;;10.39;84.99;99174.34;4859465;29;20049;-58
2023/08/26 01:54:55;;;;;;;34.95;21.02;;;;;;;10.39;85.18;99169.03;4860446;29;20057;-59
2023/08/26 01:57:21;;;;;;;40.65;21.75;;;;;;;10.36;84.88;99172.97;4859864;29;20053;-58
2023/08/26 01:59:47;;;;;;;45.70;23.13;;;;;;;10.40;85.67;99178.56;4859772;29;20043;-59
2023/08/26 02:02:13;;;;;;;37.50;23.00;;;;;;;10.44;85.73;99177.03;4859943;29;20057;-59
2023/08/26 02:04:39;;;;;;;38.00;22.00;;;;;;;10.46;85.23;99180.25;4859711;29;20067;-60
2023/08/26 02:07:05;;;;;;;37.22;22.48;;;;;;;10.48;84.53;99182.69;4859868;29;20140;-59
2023/08/26 02:09:30;;;;;;;28.40;17.33;;;;;;;10.42;84.14;99185.25;4859608;29;20571;-59
2023/08/26 02:11:56;;;;;;;27.60;17.10;;;;;;;10.42;83.55;99187.91;4861079;29;20054;-58
2023/08/26 02:14:22;;;;;;;28.98;16.42;;;;;;;10.41;83.61;99181.00;4859344;29;20053;-58
2023/08/26 02:17:09;;;;;;;31.83;16.55;;;;;;;10.44;83.21;99185.81;4846632;29;20058;-59
2023/08/26 02:19:34;;;;;;;39.20;20.45;;;;;;;10.45;83.97;99183.97;4859572;29;20045;-61
2023/08/26 02:22:00;;;;;;;31.42;17.10;;;;;;;10.46;83.13;99183.72;4859392;29;20504;-57
2023/08/26 02:24:26;;;;;;;27.05;15.55;;;;;;;10.45;82.64;99181.31;4859387;29;20397;-59
2023/08/26 02:26:52;;;;;;;25.95;16.33;;;;;;;10.44;82.13;99179.69;4859632;29;20045;-58
2023/08/26 02:29:17;;;;;;;29.10;17.17;;;;;;;10.49;82.34;99171.81;4859386;29;20140;-60
2023/08/26 02:31:43;;;;;;;32.80;18.88;;;;;;;10.57;82.52;99184.69;4859252;29;20042;-59
2023/08/26 02:34:09;;;;;;;30.30;17.33;;;;;;;10.72;82.75;99173.50;4859058;29;20053;-59
2023/08/26 02:36:35;;;;;;;29.00;16.48;;;;;;;10.86;80.87;99182.72;4843706;29;20097;-58
2023/08/26 02:39:00;;;;;;;26.02;14.18;;;;;;;11.00;79.54;99179.69;4860396;29;20049;-60
2023/08/26 02:41:26;;;;;;;28.02;16.90;;;;;;;11.09;79.46;99168.44;4860519;29;20497;-59
2023/08/26 02:43:52;;;;;;;29.90;15.65;;;;;;;11.32;78.68;99175.38;4858988;29;20049;-59
2023/08/26 02:46:17;;;;;;;27.67;15.75;;;;;;;11.55;77.67;99179.59;4860471;29;20054;-60
2023/08/26 02:48:43;;;;;;;27.70;15.23;;;;;;;11.77;76.88;99173.47;4860521;29;20057;-58
2023/08/26 02:51:08;;;;;;;22.90;15.52;;;;;;;12.01;75.25;99174.78;4858900;29;20056;-60
2023/08/26 02:53:34;;;;;;;27.50;15.50;;;;;;;12.28;73.79;99179.28;4860450;29;20102;-59
2023/08/26 02:56:00;;;;;;;28.27;15.25;;;;;;;12.47;73.16;99185.81;4859959;29;20423;-60
2023/08/26 02:58:26;;;;;;;26.13;16.13;;;;;;;12.63;72.35;99185.91;4858662;29;20060;-59
2023/08/26 03:00:55;;;;;;;28.40;14.77;;;;;;;12.87;72.01;99181.00;4874375;29;20056;-60
2023/08/26 03:03:20;;;;;;;25.33;14.68;;;;;;;13.11;69.99;99178.75;4843560;29;20057;-58
2023/08/26 03:05:46;;;;;;;21.58;15.35;;;;;;;13.16;70.02;99178.78;4858707;29;20101;-61
2023/08/26 03:08:12;;;;;;;27.90;14.70;;;;;;;13.22;69.95;99180.41;4858560;29;20084;-59
2023/08/26 03:10:38;;;;;;;31.92;15.38;;;;;;;13.18;70.05;99184.66;4857645;29;20053;-59
2023/08/26 03:13:06;;;;;;;29.50;15.02;;;;;;;13.25;70.28;99187.91;4858449;29;20045;-58
2023/08/26 03:15:32;;;;;;;28.90;16.35;;;;;;;13.41;69.45;99188.75;4858362;29;20049;-57
2023/08/26 03:17:57;;;;;;;27.98;15.75;;;;;;;13.54;68.93;99196.25;4859862;29;20131;-59
2023/08/26 03:20:23;;;;;;;29.63;15.63;;;;;;;13.61;68.93;99193.34;4858483;29;20073;-61
2023/08/26 03:22:49;;;;;;;30.63;16.02;;;;;;;13.69;68.94;99194.72;4858060;29;20053;-60
2023/08/26 03:25:16;;;;;;;26.48;15.98;;;;;;;13.84;68.21;99189.41;4858324;29;20061;-59
2023/08/26 03:27:42;;;;;;;27.38;16.52;;;;;;;14.03;67.88;99195.84;4859735;29;20097;-59
2023/08/26 03:30:08;;;;;;;26.33;15.32;;;;;;;14.22;66.83;99190.00;4843104;29;20102;-61
2023/08/26 03:32:34;;;;;;;31.95;17.15;;;;;;;14.24;66.53;99194.00;4859506;29;20049;-59
2023/08/26 03:35:00;;;;;;;28.92;16.80;;;;;;;14.40;66.33;99197.47;4859262;29;20063;-62
2023/08/26 03:37:26;;;;;;;26.70;15.13;;;;;;;14.59;65.44;99188.94;4859514;29;20053;-58
2023/08/26 03:39:51;;;;;;;29.63;15.88;;;;;;;14.68;65.80;99182.03;4859607;29;20050;-60
2023/08/26 03:42:17;;;;;;;23.00;14.93;;;;;;;14.87;64.94;99187.59;4858071;29;20052;-59
2023/08/26 03:44:43;;;;;;;29.63;16.92;;;;;;;15.00;65.11;99187.03;4859356;29;20083;-59
2023/08/26 03:47:08;;;;;;;33.30;17.38;;;;;;;15.19;65.04;99184.56;4858039;29;20053;-58
2023/08/26 03:49:34;;;;;;;26.27;16.60;;;;;;;15.50;63.79;99187.09;4858046;29;20069;-59
2023/08/26 03:51:59;;;;;;;28.85;16.77;;;;;;;15.80;62.87;99181.63;4857929;29;20477;-59
2023/08/26 03:54:25;;;;;;;29.73;16.38;;;;;;;16.02;62.27;99183.91;4857862;29;20558;-61
2023/08/26 03:56:51;;;;;;;28.55;15.95;;;;;;;16.17;61.84;99188.34;4842604;29;20077;-60
2023/08/26 03:59:17;;;;;;;25.50;15.77;;;;;;;16.25;62.51;99187.75;4858260;29;20553;-61
2023/08/26 04:01:43;;;;;;;29.63;17.42;;;;;;;16.39;61.53;99195.13;4857886;29;20049;-59
2023/08/26 04:04:09;;;;;;;25.25;14.45;;;;;;;16.60;59.68;99187.72;4857833;29;20053;-61
2023/08/26 04:06:34;;;;;;;20.60;14.70;;;;;;;16.77;59.22;99193.50;4827206;29;20045;-59
2023/08/26 04:09:03;;;;;;;23.42;15.13;;;;;;;16.94;59.06;99183.16;4857774;29;20045;-59
2023/08/26 04:11:29;;;;;;;18.58;11.73;;;;;;;17.16;57.24;99179.94;4857616;29;20181;-58
2023/08/26 04:13:56;;;;;;;24.48;12.80;;;;;;;17.53;56.35;99182.97;4858362;29;20130;-59
2023/08/26 04:16:22;;;;;;;20.05;13.35;;;;;;;17.88;55.60;99177.19;4861637;29;20053;-58
2023/08/26 04:18:48;;;;;;;22.38;12.35;;;;;;;18.06;55.60;99177.44;4861664;29;20054;-59
2023/08/26 04:21:13;;;;;;;17.65;12.07;;;;;;;18.33;54.71;99177.53;4861204;29;20089;-59
2023/08/26 04:23:39;;;;;;;14.10;9.68;;;;;;;18.39;54.44;99176.38;4861574;29;20049;-59
2023/08/26 04:26:05;;;;;;;14.93;8.93;;;;;;;18.44;54.06;99180.03;4876955;29;20056;-59
2023/08/26 04:28:31;;;;;;;12.35;8.35;;;;;;;18.64;53.12;99170.84;4861547;29;20049;-59
2023/08/26 04:30:58;;;;;;;11.13;8.35;;;;;;;18.64;52.66;99174.34;4845966;29;20049;-60
2023/08/26 04:33:24;;;;;;;12.52;7.00;;;;;;;18.74;52.00;99174.19;4861177;29;20050;-59
2023/08/26 04:35:49;;;;;;;11.93;7.63;;;;;;;18.77;51.41;99178.19;4860916;29;20053;-58
2023/08/26 04:38:15;;;;;;;12.00;7.20;;;;;;;18.70;51.91;99169.66;4861221;29;20238;-59
2023/08/26 04:40:43;;;;;;;9.38;6.90;;;;;;;18.58;51.20;99165.56;4861076;29;20041;-61
2023/08/26 04:43:10;;;;;;;8.20;6.47;;;;;;;18.48;51.53;99171.13;4861039;29;20052;-60
2023/08/26 04:45:40;;;;;;;13.23;7.15;;;;;;;18.43;52.25;99168.53;4845633;29;20053;-59
2023/08/26 04:48:07;;;;;;;13.55;7.30;;;;;;;18.52;52.16;99168.66;4845917;29;20053;-58
2023/08/26 04:50:33;;;;;;;12.05;6.55;;;;;;;18.41;52.42;99167.22;4861054;29;20045;-57
2023/08/26 04:53:00;;;;;;;17.50;6.53;;;;;;;18.37;52.10;99172.38;4861079;29;20045;-59
2023/08/26 04:55:25;;;;;;;13.52;7.00;;;;;;;18.62;52.67;99165.78;4860717;29;20444;-59
2023/08/26 04:57:51;;;;;;;16.85;7.57;;;;;;;18.84;51.56;99167.84;4860912;29;20073;-59
2023/08/26 05:00:17;;;;;;;12.68;6.28;;;;;;;18.99;50.61;99166.75;4860916;29;20052;-60
2023/08/26 05:02:43;;;;;;;10.00;6.40;;;;;;;19.15;49.90;99161.84;4860574;29;20181;-59
2023/08/26 05:05:09;;;;;;;9.40;5.78;;;;;;;19.23;49.99;99158.47;4861751;29;20049;-58
2023/08/26 05:07:35;;;;;;;7.60;5.60;;;;;;;19.19;49.65;99154.81;4845124;29;20101;-59
2023/08/26 05:10:05;;;;;;;8.00;5.28;;;;;;;19.12;49.46;99157.91;4859676;29;20472;-59
2023/08/26 05:12:31;;;;;;;11.10;5.40;;;;;;;19.16;49.31;99156.19;4845724;29;20091;-59
2023/08/26 05:14:57;;;;;;;8.93;5.22;;;;;;;19.25;49.82;99153.59;4860228;29;20072;-58
2023/08/26 05:17:23;;;;;;;14.73;5.47;;;;;;;19.33;49.64;99155.59;4860491;29;20046;-59
2023/08/26 05:19:48;;;;;;;6.18;4.72;;;;;;;19.41;49.07;99154.06;4860619;29;20101;-60
2023/08/26 05:22:14;;;;;;;9.50;5.45;;;;;;;19.41;48.52;99149.50;4861952;29;20053;-58
2023/08/26 05:24:41;;;;;;;8.38;5.38;;;;;;;19.39;48.86;99153.59;4860366;29;20046;-58
2023/08/26 05:27:06;;;;;;;10.98;5.05;;;;;;;19.41;47.94;99148.69;4845073;29;20049;-59
2023/08/26 05:29:33;;;;;;;10.52;5.40;;;;;;;19.48;48.18;99151.78;4844873;29;20052;-60
2023/08/26 05:31:59;;;;;;;10.63;5.25;;;;;;;19.58;48.23;99150.75;4845329;29;20053;-57
2023/08/26 05:34:25;;;;;;;7.40;5.35;;;;;;;19.65;48.48;99154.66;4859853;29;20424;-59
2023/08/26 05:36:51;;;;;;;8.13;5.32;;;;;;;19.69;49.12;99154.84;4844172;29;20060;-59
2023/08/26 05:39:18;;;;;;;10.13;5.53;;;;;;;19.73;48.26;99153.13;4860183;29;20045;-59
2023/08/26 05:41:45;;;;;;;9.50;5.60;;;;;;;19.81;47.95;99162.38;4861462;29;20049;-59
2023/08/26 05:44:11;;;;;;;9.32;5.70;;;;;;;19.80;47.94;99158.13;4844664;29;20034;-57
2023/08/26 05:46:36;;;;;;;7.90;5.40;;;;;;;19.59;48.43;99161.22;4860073;29;20591;-59
2023/08/26 05:49:03;;;;;;;8.48;5.25;;;;;;;19.50;48.88;99155.78;4859584;29;20049;-60
2023/08/26 05:51:29;;;;;;;7.85;5.28;;;;;;;19.49;49.26;99158.75;4843981;29;20518;-59
2023/08/26 05:53:55;;;;;;;9.02;5.40;;;;;;;19.43;48.61;99158.06;4860765;29;20065;-57
2023/08/26 05:56:21;;;;;;;8.07;5.68;;;;;;;19.31;49.07;99149.72;4845155;29;20504;-59
2023/08/26 05:58:47;;;;;;;12.32;6.97;;;;;;;19.26;49.04;99155.97;4860569;29;20057;-60
2023/08/26 06:01:13;;;;;;;6.95;5.93;;;;;;;19.20;49.19;99154.50;4844834;29;20416;-58
2023/08/26 06:03:39;;;;;;;8.80;6.10;;;;;;;19.17;49.17;99162.38;4860050;29;20056;-59
2023/08/26 06:06:05;;;;;;;11.57;6.50;;;;;;;19.15;49.83;99149.25;4859903;29;20063;-60
2023/08/26 06:08:31;;;;;;;8.52;5.68;;;;;;;19.17;49.60;99154.31;4859820;29;20057;-59
2023/08/26 06:10:58;;;;;;;9.32;5.15;;;;;;;19.20;50.25;99154.50;4844606;29;20116;-58
2023/08/26 06:13:24;;;;;;;10.20;6.18;;;;;;;19.20;50.63;99156.38;4844214;29;20129;-59
2023/08/26 06:15:57;;;;;;;7.20;6.30;;;;;;;19.24;50.46;99157.41;4859629;29;20181;-58
2023/08/26 06:18:23;;;;;;;9.70;5.75;;;;;;;19.15;50.75;99145.75;4861154;29;20140;-57
2023/08/26 06:20:50;;;;;;;8.73;5.63;;;;;;;19.32;50.30;99142.44;4860768;29;20153;-59
2023/08/26 06:23:29;;;;;;;8.75;5.53;;;;;;;19.37;50.26;99139.66;4859049;29;20144;-59
2023/08/26 06:25:56;;;;;;;7.63;5.38;;;;;;;19.46;49.92;99143.22;4859342;29;20465;-57
2023/08/26 06:28:24;;;;;;;6.43;4.65;;;;;;;19.53;49.99;99132.88;4859158;29;20080;-58
2023/08/26 06:30:50;;;;;;;11.70;5.55;;;;;;;19.57;49.55;99138.44;4859551;29;20042;-59
2023/08/26 06:33:17;;;;;;;7.72;5.20;;;;;;;19.57;49.55;99141.13;4859297;29;20088;-58
2023/08/26 06:35:47;;;;;;;6.82;5.25;;;;;;;19.61;48.99;99139.41;4860198;29;20528;-59
2023/08/26 06:38:13;;;;;;;8.93;5.00;;;;;;;19.70;48.78;99143.78;4860117;29;20045;-58
2023/08/26 06:40:39;;;;;;;9.73;5.80;;;;;;;19.79;48.54;99143.06;4858949;29;20053;-60
2023/08/26 06:43:04;;;;;;;9.63;5.80;;;;;;;19.70;48.97;99143.78;4858886;29;20045;-59
2023/08/26 06:45:34;;;;;;;8.30;5.70;;;;;;;19.90;48.60;99137.13;4828319;29;20275;-59
2023/08/26 06:48:03;;;;;;;7.03;5.05;;;;;;;20.05;48.60;99138.66;4843504;29;20050;-59
2023/08/26 06:50:29;;;;;;;9.95;5.70;;;;;;;20.19;48.56;99131.34;4858904;29;20381;-60
2023/08/26 06:52:55;;;;;;;6.70;4.88;;;;;;;20.33;48.19;99141.25;4858959;29;20049;-58
2023/08/26 06:55:20;;;;;;;8.13;5.45;;;;;;;20.46;47.46;99132.28;4860046;29;20049;-59
2023/08/26 06:57:46;;;;;;;9.57;5.10;;;;;;;20.37;47.35;99129.53;4860352;29;20145;-59
2023/08/26 07:00:13;;;;;;;6.90;5.00;;;;;;;20.51;48.00;99125.97;4859981;29;20052;-58
2023/08/26 07:02:38;;;;;;;9.23;4.65;;;;;;;20.69;47.42;99129.56;4858451;29;20136;-60
2023/08/26 07:05:04;;;;;;;7.93;4.90;;;;;;;20.77;47.46;99132.31;4858484;29;20141;-59
2023/08/26 07:07:30;;;;;;;7.07;4.85;;;;;;;20.76;46.97;99132.59;4859626;29;20064;-58
2023/08/26 07:09:55;;;;;;;8.05;4.70;;;;;;;20.69;46.92;99127.66;4843121;29;20499;-60
2023/08/26 07:12:21;;;;;;;7.15;5.57;;;;;;;20.81;46.66;99124.38;4859855;29;20049;-58
2023/08/26 07:14:47;;;;;;;9.50;4.72;;;;;;;20.81;46.88;99117.09;4859479;29;20061;-58
2023/08/26 07:17:15;;;;;;;7.35;4.82;;;;;;;20.87;46.95;99133.91;4858360;29;20133;-59
2023/08/26 07:19:41;;;;;;;11.07;4.72;;;;;;;20.97;46.53;99128.25;4859149;29;20049;-59
2023/08/26 07:22:07;;;;;;;5.95;4.38;;;;;;;21.05;46.45;99127.47;4859616;29;20057;-58
2023/08/26 07:24:33;;;;;;;7.97;4.60;;;;;;;21.14;45.86;99135.56;4859628;29;20072;-57
2023/08/26 07:26:58;;;;;;;6.72;4.72;;;;;;;21.06;46.58;99123.69;4859795;29;20053;-62
2023/08/26 07:29:24;;;;;;;9.02;4.80;;;;;;;21.09;45.92;99127.66;4859363;29;20048;-61
2023/08/26 07:31:49;;;;;;;8.13;4.28;;;;;;;20.89;46.61;99139.00;4859219;29;20053;-59
2023/08/26 07:34:15;;;;;;;6.50;4.43;;;;;;;20.92;46.85;99131.09;4858362;29;20033;-60
2023/08/26 07:36:41;;;;;;;13.70;4.53;;;;;;;20.99;46.64;99133.31;4858689;29;20061;-59
2023/08/26 07:39:06;;;;;;;8.02;4.70;;;;;;;20.97;46.55;99125.56;4858626;29;20530;-58
2023/08/26 07:41:32;;;;;;;6.47;3.97;;;;;;;20.82;46.39;99116.00;4857589;29;20049;-59
2023/08/26 07:43:58;;;;;;;7.30;4.22;;;;;;;20.93;46.50;99119.19;4858958;29;20539;-60
2023/08/26 07:46:23;;;;;;;4.97;3.85;;;;;;;21.06;45.98;99121.00;4858237;29;20049;-59
2023/08/26 07:48:49;;;;;;;6.32;3.97;;;;;;;21.12;45.58;99124.34;4857768;29;20049;-60
2023/08/26 07:51:16;;;;;;;7.57;4.07;;;;;;;21.06;45.81;99115.59;4858709;29;20053;-61
2023/08/26 07:53:42;;;;;;;9.40;3.80;;;;;;;21.11;46.13;99111.94;4859515;29;20053;-61
2023/08/26 07:56:08;;;;;;;5.55;4.28;;;;;;;21.03;46.28;99115.41;4859140;29;20424;-61
2023/08/26 07:58:33;;;;;;;6.07;4.13;;;;;;;20.95;47.03;99108.13;4857844;29;20157;-60
2023/08/26 08:00:59;;;;;;;6.88;4.20;;;;;;;20.80;47.07;99112.03;4857912;29;20037;-62
2023/08/26 08:03:25;;;;;;;9.10;4.20;;;;;;;20.64;47.28;99104.34;4859220;29;20057;-59
2023/08/26 08:05:50;;;;;;;6.93;4.22;;;;;;;20.78;47.40;99100.78;4857439;29;20045;-60
2023/08/26 08:08:16;;;;;;;7.60;4.47;;;;;;;20.85;46.73;99112.69;4859371;29;20112;-58
2023/08/26 08:10:42;;;;;;;6.07;4.40;;;;;;;21.00;46.70;99103.38;4858952;29;20041;-64
2023/08/26 08:13:08;;;;;;;7.68;4.15;;;;;;;21.03;46.82;99105.44;4859266;29;20062;-60
2023/08/26 08:15:35;;;;;;;8.98;4.85;;;;;;;21.10;46.90;99096.91;4858737;29;20480;-59
2023/08/26 08:18:02;;;;;;;12.27;4.47;;;;;;;20.90;46.82;99094.78;4856973;29;20112;-58
2023/08/26 08:20:30;;;;;;;6.68;4.07;;;;;;;20.92;46.87;99101.44;4858784;29;20129;-59
2023/08/26 08:22:56;;;;;;;7.07;4.63;;;;;;;20.83;47.68;99095.25;4859200;29;20056;-59
2023/08/26 08:25:22;;;;;;;6.00;4.20;;;;;;;20.77;47.63;99091.91;4859194;29;20049;-60
2023/08/26 08:27:47;;;;;;;8.23;4.55;;;;;;;20.73;47.84;99085.53;4859041;29;20050;-60
2023/08/26 08:30:13;;;;;;;8.70;4.57;;;;;;;20.78;47.71;99087.31;4857751;29;20420;-60
2023/08/26 08:32:39;;;;;;;5.85;4.28;;;;;;;20.83;47.68;99085.25;4858999;29;20492;-60
2023/08/26 08:35:05;;;;;;;8.13;4.38;;;;;;;20.67;48.46;99078.69;4842072;29;20041;-59
2023/08/26 08:37:31;;;;;;;6.95;4.50;;;;;;;20.58;48.77;99075.97;4858677;29;20050;-56
2023/08/26 08:39:56;;;;;;;5.55;4.00;;;;;;;20.57;48.68;99077.09;4858805;29;20068;-58
2023/08/26 08:42:22;;;;;;;6.05;4.40;;;;;;;20.70;49.00;99077.28;4858893;29;20053;-57
2023/08/26 08:44:48;;;;;;;5.80;4.07;;;;;;;20.77;48.83;99069.56;4858971;29;20110;-57
2023/08/26 08:47:15;;;;;;;5.75;4.25;;;;;;;20.77;49.39;99069.56;4855784;29;20094;-60
2023/08/26 08:49:44;;;;;;;7.05;4.47;;;;;;;20.85;49.20;99074.16;4855562;29;20052;-59
2023/08/26 08:52:11;;;;;;;6.00;4.88;;;;;;;20.89;49.05;99077.03;4857756;29;20053;-60
2023/08/26 08:54:36;;;;;;;9.32;4.53;;;;;;;21.02;49.25;99071.50;4857091;29;20140;-60
2023/08/26 08:57:03;;;;;;;9.80;4.90;;;;;;;21.22;49.00;99072.81;4857957;29;20059;-60
2023/08/26 08:59:34;;;;;;;6.05;4.70;;;;;;;21.35;48.77;99075.69;4857722;29;20421;-60
2023/08/26 09:01:59;;;;;;;6.80;5.00;;;;;;;21.32;48.93;99075.22;4861115;29;20492;-61
2023/08/26 09:04:25;;;;;;;6.95;4.60;;;;;;;21.28;49.24;99076.16;4862319;29;20078;-62
2023/08/26 09:06:52;;;;;;;13.20;5.35;;;;;;;21.27;49.38;99071.88;4861920;29;20102;-61
2023/08/26 09:09:18;;;;;;;7.55;4.97;;;;;;;21.24;49.67;99072.50;4861043;29;20073;-61
2023/08/26 09:11:44;;;;;;;9.27;4.88;;;;;;;21.36;49.92;99063.81;4861805;29;20045;-61
2023/08/26 09:14:10;;;;;;;6.80;4.80;;;;;;;21.40;49.37;99070.16;4861540;29;20053;-59
2023/08/26 09:16:41;;;;;;;8.93;4.50;;;;;;;21.30;49.64;99068.56;4860536;29;20077;-61
2023/08/26 09:19:11;;;;;;;6.43;4.60;;;;;;;21.06;50.32;99063.59;4814429;29;20106;-60
2023/08/26 09:21:43;;;;;;;8.18;4.38;;;;;;;21.02;50.74;99063.44;4860202;29;20053;-58
2023/08/26 09:24:18;;;;;;;6.68;4.03;;;;;;;21.13;50.21;99063.94;4844940;29;20393;-60
2023/08/26 09:26:58;;;;;;;9.23;4.40;;;;;;;21.18;50.61;99060.28;4843828;29;20049;-58
2023/08/26 09:29:24;;;;;;;6.70;4.22;;;;;;;21.27;50.88;99063.78;4860141;29;20048;-60
2023/08/26 09:31:54;;;;;;;6.90;4.20;;;;;;;21.18;50.27;99069.19;4859418;29;20045;-60
2023/08/26 09:34:25;;;;;;;6.53;4.47;;;;;;;21.14;50.81;99070.91;4861130;29;20072;-60
2023/08/26 09:36:51;;;;;;;9.65;4.97;;;;;;;21.08;51.10;99064.84;4861595;29;20049;-60
2023/08/26 09:39:17;;;;;;;9.32;4.82;;;;;;;21.07;51.18;99067.88;4860416;29;20052;-62
2023/08/26 09:41:44;;;;;;;10.63;4.75;;;;;;;21.10;51.31;99064.56;4861558;29;20038;-60
2023/08/26 09:44:10;;;;;;;7.25;4.18;;;;;;;21.10;51.39;99062.66;4861272;29;20053;-60
2023/08/26 09:46:36;;;;;;;8.50;4.25;;;;;;;21.05;51.27;99056.63;4861446;29;20045;-61
2023/08/26 09:49:03;;;;;;;5.65;4.15;;;;;;;20.94;51.56;99063.41;4861178;29;20534;-61
2023/08/26 09:51:32;;;;;;;9.45;4.28;;;;;;;20.94;51.51;99066.09;4860770;29;20053;-60
2023/08/26 09:53:59;;;;;;;8.23;4.30;;;;;;;20.91;51.71;99056.75;4860485;29;20045;-60
2023/08/26 09:56:26;;;;;;;9.75;4.35;;;;;;;20.91;51.72;99062.13;4860802;29;20049;-62
2023/08/26 09:58:52;;;;;;;6.68;4.13;;;;;;;20.75;52.27;99059.09;4861254;29;20476;-61
2023/08/26 10:01:22;;;;;;;5.22;4.15;;;;;;;20.84;51.60;99046.44;4844462;29;20472;-61
2023/08/26 10:03:53;;;;;;;5.10;3.90;;;;;;;20.83;52.02;99047.56;4859831;29;20056;-60
2023/08/26 10:06:25;;;;;;;7.97;3.97;;;;;;;20.93;52.13;99054.53;4844495;29;20057;-61
2023/08/26 10:09:00;;;;;;;5.53;4.40;;;;;;;21.01;51.66;99052.97;4860055;29;20050;-59
2023/08/26 10:11:27;;;;;;;7.63;4.55;;;;;;;21.05;51.71;99054.72;4858857;29;20097;-60
2023/08/26 10:13:54;;;;;;;13.80;4.45;;;;;;;21.06;51.21;99056.31;4859350;29;20149;-60
2023/08/26 10:16:23;;;;;;;6.93;4.07;;;;;;;20.95;51.47;99048.84;4859577;29;20082;-61
2023/08/26 10:18:52;;;;;;;8.35;4.57;;;;;;;20.83;52.18;99044.06;4844542;29;20080;-60
2023/08/26 10:21:18;;;;;;;6.32;4.13;;;;;;;20.68;52.22;99036.41;4859649;29;20425;-60
2023/08/26 10:23:44;;;;;;;8.40;4.32;;;;;;;20.70;51.88;99031.50;4828963;29;20060;-59
2023/08/26 10:26:10;;;;;;;5.78;3.95;;;;;;;20.69;52.01;99027.22;4859074;29;20052;-62
2023/08/26 10:28:37;;;;;;;7.07;4.60;;;;;;;20.73;51.73;99028.19;4861004;29;20050;-60
2023/08/26 10:31:09;;;;;;;7.18;4.28;;;;;;;20.89;52.06;99036.63;4859711;29;20048;-62
2023/08/26 10:34:00;;;;;;;5.70;3.55;;;;;;;21.14;50.87;99033.16;4869783;29;20048;-61
2023/08/26 10:36:58;;;;;;;7.65;3.58;;;;;;;21.24;50.52;99034.78;4823530;29;20060;-59
2023/08/26 10:39:24;;;;;;;7.90;3.70;;;;;;;21.03;50.49;99032.69;4844221;29;20041;-60
2023/08/26 10:42:11;;;;;;;11.85;4.15;;;;;;;21.04;51.16;99033.47;4859171;29;20049;-58
2023/08/26 10:44:38;;;;;;;4.53;3.50;;;;;;;21.07;51.16;99033.63;4858435;29;20061;-59
2023/08/26 10:47:03;;;;;;;4.93;3.78;;;;;;;20.91;51.37;99035.19;4860365;29;20046;-59
2023/08/26 10:49:29;;;;;;;6.22;3.40;;;;;;;20.99;50.92;99039.00;4859876;29;20045;-58
2023/08/26 10:52:16;;;;;;;6.32;3.65;;;;;;;20.91;51.14;99042.47;4860063;29;20041;-59
2023/08/26 10:54:43;;;;;;;7.90;3.35;;;;;;;21.13;51.21;99036.97;4860391;29;20099;-60
2023/08/26 10:57:09;;;;;;;5.38;3.63;;;;;;;21.16;51.26;99041.72;4860037;29;20532;-59
2023/08/26 10:59:37;;;;;;;6.28;3.67;;;;;;;21.09;50.66;99038.72;4859943;29;20137;-59
2023/08/26 11:02:11;;;;;;;7.47;3.80;;;;;;;21.29;50.74;99029.22;4859923;29;20053;-58
2023/08/26 11:04:44;;;;;;;11.35;7.90;;;;;;;21.32;50.47;99044.75;4860135;29;20096;-58
2023/08/26 11:07:17;;;;;;;9.57;4.05;;;;;;;21.10;51.14;99035.69;4859754;29;20045;-59
2023/08/26 11:09:43;;;;;;;5.20;3.63;;;;;;;21.11;51.44;99033.78;4859617;29;20580;-60
2023/08/26 11:12:28;;;;;;;7.90;3.83;;;;;;;21.26;51.66;99027.16;4859892;29;20061;-59
2023/08/26 11:15:03;;;;;;;5.47;3.47;;;;;;;21.35;50.84;99027.16;4859690;29;20076;-60
2023/08/26 11:17:29;;;;;;;4.93;3.60;;;;;;;21.33;50.81;99032.88;4859842;29;20050;-59
2023/08/26 11:19:56;;;;;;;5.20;3.50;;;;;;;21.17;51.32;99031.75;4857488;29;20045;-60
2023/08/26 11:22:25;;;;;;;4.70;3.55;;;;;;;21.19;51.13;99024.94;4859532;29;20500;-60
2023/08/26 11:24:51;;;;;;;5.57;3.90;;;;;;;21.20;51.29;99025.72;4858253;29;20084;-61
2023/08/26 11:27:20;;;;;;;6.25;4.30;;;;;;;21.08;51.69;99016.34;4859348;29;20087;-56